Time;durP1;ratioP1;P1;durP2;ratioP2;P2;SDS_P1;SDS_P2;PMS_P1;PMS_P2;Temp;Humidity;BMP_temperature;BMP_pressure;BME280_temperature;BME280_humidity;BME280_pressure;Samples;Min_cycle;Max_cycle;Signal;HPM_P1;HPM_P2
2023/01/24 00:00:32;;;;;;;12.02;7.00;;;;;;;;;;5035564;28;20040;-86
2023/01/24 00:02:57;;;;;;;18.13;7.60;;;;;;;;;;5013986;28;20704;-85
2023/01/24 00:05:23;;;;;;;13.35;7.65;;;;;;;;;;5034190;28;20029;-85
2023/01/24 00:07:48;;;;;;;14.23;7.18;;;;;;;;;;5030816;28;20025;-84
2023/01/24 00:10:14;;;;;;;14.38;7.05;;;;;;;;;;5027216;28;20044;-84
2023/01/24 00:12:39;;;;;;;12.45;6.38;;;;;;;;;;5025339;28;20036;-86
2023/01/24 00:15:05;;;;;;;10.73;7.07;;;;;;;;;;5033925;28;20475;-85
2023/01/24 00:17:30;;;;;;;16.33;8.75;;;;;;;;;;5030509;28;20033;-85
2023/01/24 00:19:57;;;;;;;13.57;7.50;;;;;;;;;;5032175;28;20040;-84
2023/01/24 00:22:22;;;;;;;11.63;6.88;;;;;;;;;;5032540;28;20726;-85
2023/01/24 00:24:48;;;;;;;16.92;8.07;;;;;;;;;;5014694;28;20045;-85
2023/01/24 00:27:15;;;;;;;12.80;7.40;;;;;;;;;;5032177;28;20028;-85
2023/01/24 00:29:40;;;;;;;13.65;7.43;;;;;;;;;;5032380;28;20501;-85
2023/01/24 00:32:06;;;;;;;14.98;6.93;;;;;;;;;;5035657;28;20041;-84
2023/01/24 00:34:31;;;;;;;12.45;5.85;;;;;;;;;;5017620;28;20128;-85
2023/01/24 00:36:57;;;;;;;14.02;7.10;;;;;;;;;;5042682;28;20025;-83
2023/01/24 00:39:22;;;;;;;16.20;7.40;;;;;;;;;;5041834;28;20120;-85
2023/01/24 00:41:47;;;;;;;14.57;7.88;;;;;;;;;;5045044;28;20082;-86
2023/01/24 00:44:13;;;;;;;15.23;6.20;;;;;;;;;;5042377;28;20103;-84
2023/01/24 00:46:38;;;;;;;17.38;7.38;;;;;;;;;;5026983;28;20060;-85
2023/01/24 00:49:04;;;;;;;17.80;8.02;;;;;;;;;;5056432;28;20029;-85
2023/01/24 00:51:29;;;;;;;12.63;7.55;;;;;;;;;;5030160;28;20075;-86
2023/01/24 00:53:54;;;;;;;16.55;7.93;;;;;;;;;;5043290;28;20030;-87
2023/01/24 00:56:20;;;;;;;12.13;7.03;;;;;;;;;;5022504;28;21176;-87
2023/01/24 00:58:45;;;;;;;14.23;7.85;;;;;;;;;;5024875;28;20130;-84
2023/01/24 01:01:10;;;;;;;16.75;8.18;;;;;;;;;;5022178;28;20025;-85
2023/01/24 01:03:36;;;;;;;17.38;8.88;;;;;;;;;;5022722;28;20032;-84
2023/01/24 01:06:06;;;;;;;14.65;7.85;;;;;;;;;;5023933;28;20028;-85
2023/01/24 01:08:37;;;;;;;16.70;8.18;;;;;;;;;;5035131;28;20036;-86
2023/01/24 01:11:02;;;;;;;15.65;8.60;;;;;;;;;;5048455;28;20017;-85
2023/01/24 01:13:28;;;;;;;17.25;8.20;;;;;;;;;;5047376;28;20029;-85
2023/01/24 01:16:07;;;;;;;13.48;7.88;;;;;;;;;;5023544;28;20032;-87
2023/01/24 01:18:34;;;;;;;15.65;9.02;;;;;;;;;;5027734;28;20020;-84
2023/01/24 01:20:59;;;;;;;18.52;7.65;;;;;;;;;;5027601;28;20037;-86
2023/01/24 01:23:26;;;;;;;14.57;7.65;;;;;;;;;;5046238;28;20102;-85
2023/01/24 01:25:51;;;;;;;11.63;7.03;;;;;;;;;;5026005;28;20028;-85
2023/01/24 01:28:16;;;;;;;16.92;8.75;;;;;;;;;;5026300;28;20458;-85
2023/01/24 01:30:42;;;;;;;13.52;7.65;;;;;;;;;;5027864;28;20075;-86
2023/01/24 01:33:07;;;;;;;12.98;7.60;;;;;;;;;;5042724;28;20016;-85
2023/01/24 01:35:33;;;;;;;12.73;7.53;;;;;;;;;;5024683;28;20063;-86
2023/01/24 01:37:58;;;;;;;11.32;6.45;;;;;;;;;;5045801;28;20055;-86
2023/01/24 01:40:23;;;;;;;16.95;8.52;;;;;;;;;;5048954;28;20143;-86
2023/01/24 01:42:54;;;;;;;14.13;8.00;;;;;;;;;;5047779;28;20032;-84
2023/01/24 01:45:35;;;;;;;16.88;7.80;;;;;;;;;;5044822;28;20025;-86
2023/01/24 01:48:04;;;;;;;16.55;7.80;;;;;;;;;;5049468;28;20028;-84
2023/01/24 01:50:34;;;;;;;16.20;9.23;;;;;;;;;;5046722;28;20033;-85
2023/01/24 01:52:59;;;;;;;16.85;8.18;;;;;;;;;;5048884;28;20037;-87
2023/01/24 01:55:31;;;;;;;18.35;8.07;;;;;;;;;;5029600;28;21407;-86
2023/01/24 01:57:57;;;;;;;15.93;8.75;;;;;;;;;;5049056;28;20020;-85
2023/01/24 02:00:24;;;;;;;16.20;8.52;;;;;;;;;;5050298;28;20036;-85
2023/01/24 02:03:37;;;;;;;14.90;8.18;;;;;;;;;;5048732;28;20053;-85
2023/01/24 02:05:45;;;;;;;21.65;9.68;;;;;;;;;;5057585;28;20433;-85
2023/01/24 02:08:15;;;;;;;13.55;7.70;;;;;;;;;;5045174;28;20021;-86
2023/01/24 02:13:25;;;;;;;15.00;8.18;;;;;;;;;;5055458;28;20351;-86
2023/01/24 02:16:02;;;;;;;19.33;8.85;;;;;;;;;;5060480;28;20470;-86
2023/01/24 02:18:33;;;;;;;17.27;8.45;;;;;;;;;;5052523;28;20033;-87
2023/01/24 02:20:59;;;;;;;17.63;8.52;;;;;;;;;;5033773;28;20029;-86
2023/01/24 02:23:30;;;;;;;19.65;8.63;;;;;;;;;;5047981;28;20040;-85
2023/01/24 02:26:09;;;;;;;17.85;8.60;;;;;;;;;;5048850;28;20504;-86
2023/01/24 02:28:35;;;;;;;13.13;7.93;;;;;;;;;;5029468;28;20033;-87
2023/01/24 02:31:02;;;;;;;13.30;7.22;;;;;;;;;;5031431;28;20112;-85
2023/01/24 02:33:28;;;;;;;16.10;8.30;;;;;;;;;;5046077;28;20099;-86
2023/01/24 02:36:18;;;;;;;15.55;7.55;;;;;;;;;;5051334;28;20032;-86
2023/01/24 02:38:49;;;;;;;17.25;8.23;;;;;;;;;;5032615;28;20419;-85
2023/01/24 02:41:17;;;;;;;12.27;7.13;;;;;;;;;;5048377;28;20056;-85
2023/01/24 02:43:47;;;;;;;15.05;7.53;;;;;;;;;;5061915;28;20076;-85
2023/01/24 02:46:12;;;;;;;15.68;9.00;;;;;;;;;;5057683;28;20349;-86
2023/01/24 02:48:38;;;;;;;19.40;8.75;;;;;;;;;;5059653;28;20722;-86
2023/01/24 02:53:47;;;;;;;15.68;7.03;;;;;;;;;;5057559;28;20082;-86
2023/01/24 02:58:56;;;;;;;16.38;7.72;;;;;;;;;;5061730;28;20592;-87
2023/01/24 03:01:23;;;;;;;14.55;7.78;;;;;;;;;;5067921;28;20032;-86
2023/01/24 03:03:49;;;;;;;21.77;8.98;;;;;;;;;;5062219;28;20019;-87
2023/01/24 03:06:16;;;;;;;16.25;7.72;;;;;;;;;;5050791;28;20040;-86
2023/01/24 03:08:42;;;;;;;18.35;7.95;;;;;;;;;;5055761;28;20116;-86
2023/01/24 03:11:09;;;;;;;14.45;7.80;;;;;;;;;;5050249;28;20049;-85
2023/01/24 03:35:30;;;;;;;17.10;7.78;;;;;;;;;;5048085;28;20632;-86
2023/01/24 03:40:40;;;;;;;18.88;8.52;;;;;;;;;;5055584;28;20502;-85
2023/01/24 03:43:05;;;;;;;14.98;8.20;;;;;;;;;;5056976;28;20116;-85
2023/01/24 03:45:34;;;;;;;15.60;8.75;;;;;;;;;;5039342;28;20024;-85
2023/01/24 03:48:02;;;;;;;14.18;8.02;;;;;;;;;;5053717;28;20025;-85
2023/01/24 03:53:16;;;;;;;14.05;7.10;;;;;;;;;;5059976;28;20107;-85
2023/01/24 03:55:41;;;;;;;12.05;6.95;;;;;;;;;;5050358;28;20447;-85
2023/01/24 03:58:09;;;;;;;15.50;8.20;;;;;;;;;;5055917;28;20079;-85
2023/01/24 04:00:35;;;;;;;15.15;7.75;;;;;;;;;;5065008;28;20025;-84
2023/01/24 04:03:00;;;;;;;17.30;7.72;;;;;;;;;;5045460;28;20074;-84
2023/01/24 04:05:26;;;;;;;14.57;7.63;;;;;;;;;;5040351;28;20017;-84
2023/01/24 04:07:53;;;;;;;13.43;7.10;;;;;;;;;;5032612;28;20025;-85
2023/01/24 04:10:19;;;;;;;17.10;8.18;;;;;;;;;;5045206;28;20039;-85
2023/01/24 04:12:44;;;;;;;15.73;7.82;;;;;;;;;;5048241;28;20045;-84
2023/01/24 04:15:24;;;;;;;13.20;7.40;;;;;;;;;;5047455;28;20055;-85
2023/01/24 04:17:50;;;;;;;13.90;8.73;;;;;;;;;;5049775;28;20060;-86
2023/01/24 04:20:16;;;;;;;20.42;8.70;;;;;;;;;;5036561;28;20048;-85
2023/01/24 04:22:42;;;;;;;16.95;8.15;;;;;;;;;;5053378;28;20024;-86
2023/01/24 04:25:09;;;;;;;17.00;7.50;;;;;;;;;;5052858;28;20013;-87
2023/01/24 04:27:35;;;;;;;15.18;8.27;;;;;;;;;;5029028;28;20017;-87
2023/01/24 04:30:01;;;;;;;13.50;7.35;;;;;;;;;;5053248;28;20067;-86
2023/01/24 04:32:28;;;;;;;18.08;9.30;;;;;;;;;;5050541;28;20040;-86
2023/01/24 04:34:54;;;;;;;17.00;8.35;;;;;;;;;;5038639;28;20021;-87
2023/01/24 04:37:19;;;;;;;14.82;6.82;;;;;;;;;;5042380;28;20167;-86
2023/01/24 04:39:44;;;;;;;18.13;7.88;;;;;;;;;;5057182;28;20488;-86
2023/01/24 04:42:10;;;;;;;15.60;8.90;;;;;;;;;;5055751;28;20032;-86
2023/01/24 04:44:35;;;;;;;21.00;8.55;;;;;;;;;;5064923;28;20111;-86
2023/01/24 04:47:01;;;;;;;12.88;7.80;;;;;;;;;;5047331;28;20467;-86
2023/01/24 04:49:26;;;;;;;16.33;9.02;;;;;;;;;;5045713;28;20587;-86
2023/01/24 04:51:51;;;;;;;14.43;8.30;;;;;;;;;;5044187;28;20538;-86
2023/01/24 04:54:17;;;;;;;16.73;8.80;;;;;;;;;;5063819;28;20029;-86
2023/01/24 04:56:42;;;;;;;19.92;9.55;;;;;;;;;;5057436;28;20036;-87
2023/01/24 04:59:11;;;;;;;15.57;8.48;;;;;;;;;;5080048;28;20581;-86
2023/01/24 05:01:36;;;;;;;17.58;8.65;;;;;;;;;;5066821;28;20033;-87
2023/01/24 05:04:01;;;;;;;18.38;9.18;;;;;;;;;;5056335;28;20012;-87
2023/01/24 05:06:30;;;;;;;13.68;7.90;;;;;;;;;;5065125;28;20058;-86
2023/01/24 05:08:56;;;;;;;13.75;8.38;;;;;;;;;;5050766;28;20017;-86
2023/01/24 05:11:22;;;;;;;18.30;9.38;;;;;;;;;;5041087;28;20043;-85
2023/01/24 05:13:48;;;;;;;17.50;9.20;;;;;;;;;;5034777;28;20037;-86
2023/01/24 05:16:14;;;;;;;15.90;7.93;;;;;;;;;;5048785;28;20418;-85
2023/01/24 05:18:39;;;;;;;15.20;8.27;;;;;;;;;;5048647;28;20096;-88
2023/01/24 05:21:11;;;;;;;18.42;8.52;;;;;;;;;;5035888;28;20024;-87
2023/01/24 05:23:36;;;;;;;17.75;9.45;;;;;;;;;;5046430;28;21354;-85
2023/01/24 05:26:03;;;;;;;14.27;8.23;;;;;;;;;;5052220;28;20082;-86
2023/01/24 05:28:29;;;;;;;18.77;8.80;;;;;;;;;;5047169;28;20686;-87
2023/01/24 05:31:03;;;;;;;17.08;8.30;;;;;;;;;;5051032;28;20036;-87
2023/01/24 05:33:28;;;;;;;21.63;10.18;;;;;;;;;;5030884;28;20036;-86
2023/01/24 05:36:06;;;;;;;23.50;9.77;;;;;;;;;;5044468;28;20029;-87
2023/01/24 05:38:31;;;;;;;18.83;8.05;;;;;;;;;;5043011;28;20513;-87
2023/01/24 05:41:04;;;;;;;19.85;9.50;;;;;;;;;;5026126;28;20025;-87
2023/01/24 05:43:30;;;;;;;16.98;8.25;;;;;;;;;;5044773;28;20090;-86
2023/01/24 05:45:58;;;;;;;19.77;9.10;;;;;;;;;;5025615;28;20025;-86
2023/01/24 05:48:24;;;;;;;15.52;8.18;;;;;;;;;;5030486;28;20044;-85
2023/01/24 05:50:49;;;;;;;18.95;8.85;;;;;;;;;;5046640;28;20499;-86
2023/01/24 05:53:14;;;;;;;23.88;9.70;;;;;;;;;;5039258;28;20032;-85
2023/01/24 05:55:40;;;;;;;15.50;7.60;;;;;;;;;;5048433;28;20063;-87
2023/01/24 05:58:05;;;;;;;20.48;9.10;;;;;;;;;;5048825;28;20468;-87
2023/01/24 06:00:30;;;;;;;17.77;8.77;;;;;;;;;;5029573;28;20029;-87
2023/01/24 06:03:01;;;;;;;19.83;9.23;;;;;;;;;;5049292;28;20036;-87
2023/01/24 06:05:26;;;;;;;18.20;9.18;;;;;;;;;;5030097;28;20119;-88
2023/01/24 06:07:53;;;;;;;19.42;9.38;;;;;;;;;;5052382;28;20063;-88
2023/01/24 06:10:18;;;;;;;17.35;8.73;;;;;;;;;;5058239;28;20028;-85
2023/01/24 06:12:44;;;;;;;19.17;9.20;;;;;;;;;;5035555;28;20036;-86
2023/01/24 06:15:09;;;;;;;18.33;8.50;;;;;;;;;;5054599;28;20025;-87
2023/01/24 06:17:35;;;;;;;19.25;9.60;;;;;;;;;;5059417;28;20025;-86
2023/01/24 06:20:00;;;;;;;15.98;8.13;;;;;;;;;;5057835;28;20055;-86
2023/01/24 06:22:36;;;;;;;17.55;9.02;;;;;;;;;;5060564;28;20021;-85
2023/01/24 06:25:10;;;;;;;19.10;8.43;;;;;;;;;;5055280;28;20676;-85
2023/01/24 06:27:35;;;;;;;18.15;8.07;;;;;;;;;;5062983;28;20032;-86
2023/01/24 06:30:01;;;;;;;16.85;8.77;;;;;;;;;;5041514;28;20370;-86
2023/01/24 06:32:40;;;;;;;16.52;8.00;;;;;;;;;;5047109;28;20128;-87
2023/01/24 06:35:12;;;;;;;23.80;9.77;;;;;;;;;;5052669;28;20091;-86
2023/01/24 06:37:43;;;;;;;;;;;;;;;;;;5053617;28;20380;-87
2023/01/24 06:40:10;;;;;;;14.07;7.53;;;;;;;;;;5047157;28;20050;-85
2023/01/24 06:42:36;;;;;;;20.05;8.45;;;;;;;;;;5051766;28;20032;-87
2023/01/24 06:45:02;;;;;;;22.05;9.43;;;;;;;;;;5069329;28;20047;-87
2023/01/24 06:47:27;;;;;;;20.48;10.05;;;;;;;;;;5058692;28;20032;-87
2023/01/24 06:49:54;;;;;;;16.17;8.35;;;;;;;;;;5028038;28;20029;-86
2023/01/24 06:52:19;;;;;;;18.65;9.77;;;;;;;;;;5028547;28;20029;-87
2023/01/24 06:54:45;;;;;;;16.48;9.05;;;;;;;;;;5037567;28;20036;-87
2023/01/24 06:57:10;;;;;;;19.08;8.98;;;;;;;;;;5054524;28;20020;-87
2023/01/24 06:59:35;;;;;;;21.27;9.70;;;;;;;;;;5049220;28;20017;-86
2023/01/24 07:02:01;;;;;;;19.63;9.32;;;;;;;;;;5054226;28;20494;-87
2023/01/24 07:04:26;;;;;;;12.32;7.32;;;;;;;;;;5054772;28;20017;-86
2023/01/24 07:06:52;;;;;;;18.65;9.30;;;;;;;;;;5055673;28;20441;-85
2023/01/24 07:09:21;;;;;;;25.13;9.88;;;;;;;;;;5038528;28;20032;-85
2023/01/24 07:11:49;;;;;;;17.98;8.45;;;;;;;;;;5058420;28;21464;-85
2023/01/24 07:14:15;;;;;;;12.80;7.50;;;;;;;;;;5055542;28;20112;-85
2023/01/24 07:16:40;;;;;;;19.85;8.57;;;;;;;;;;5062052;28;20057;-88
2023/01/24 07:19:12;;;;;;;16.65;8.57;;;;;;;;;;5055744;28;20021;-89
2023/01/24 07:21:39;;;;;;;;;;;;;;;;;;5060318;28;20060;-89
2023/01/24 07:24:12;;;;;;;13.98;6.65;;;;;;;;;;5046723;28;20358;-87
2023/01/24 07:26:37;;;;;;;16.63;8.63;;;;;;;;;;5035477;28;20080;-86
2023/01/24 07:29:03;;;;;;;19.17;8.93;;;;;;;;;;5052027;28;20028;-85
2023/01/24 07:31:28;;;;;;;16.13;8.70;;;;;;;;;;5059326;28;20095;-88
2023/01/24 07:33:53;;;;;;;15.52;7.85;;;;;;;;;;5057733;28;20029;-87
2023/01/24 07:36:19;;;;;;;19.88;9.20;;;;;;;;;;5051626;28;20029;-88
2023/01/24 07:38:44;;;;;;;17.77;7.88;;;;;;;;;;5056950;28;20064;-86
2023/01/24 07:41:10;;;;;;;15.77;7.25;;;;;;;;;;5073896;28;20024;-88
2023/01/24 07:43:36;;;;;;;16.05;8.10;;;;;;;;;;5062677;28;20087;-89
2023/01/24 07:46:01;;;;;;;18.63;8.23;;;;;;;;;;5037923;28;20024;-88
2023/01/24 07:48:27;;;;;;;20.90;8.52;;;;;;;;;;5049071;28;20390;-87
2023/01/24 07:50:52;;;;;;;12.65;8.02;;;;;;;;;;5042449;28;20032;-88
2023/01/24 07:53:18;;;;;;;23.55;9.95;;;;;;;;;;5054512;28;20060;-87
2023/01/24 07:55:43;;;;;;;15.15;7.68;;;;;;;;;;5054674;28;20017;-87
2023/01/24 07:58:08;;;;;;;16.08;7.60;;;;;;;;;;5036690;28;20383;-87
2023/01/24 08:00:33;;;;;;;17.35;8.55;;;;;;;;;;5034176;28;20032;-88
2023/01/24 08:02:59;;;;;;;20.30;8.60;;;;;;;;;;5035800;28;20497;-88
2023/01/24 08:05:24;;;;;;;19.65;8.82;;;;;;;;;;5043292;28;20037;-90
2023/01/24 08:07:49;;;;;;;21.35;8.85;;;;;;;;;;5041317;28;20032;-87
2023/01/24 08:10:15;;;;;;;23.60;8.77;;;;;;;;;;5035297;28;20090;-89
2023/01/24 08:12:41;;;;;;;19.58;8.45;;;;;;;;;;5075026;28;20025;-88
2023/01/24 08:15:07;;;;;;;17.60;8.63;;;;;;;;;;5054065;28;20025;-87
2023/01/24 08:17:32;;;;;;;19.42;9.13;;;;;;;;;;5034486;28;20036;-90
2023/01/24 08:19:57;;;;;;;19.73;9.68;;;;;;;;;;5059638;28;20020;-88
2023/01/24 08:22:24;;;;;;;18.08;9.27;;;;;;;;;;5054702;28;20799;-88
2023/01/24 08:24:50;;;;;;;16.70;8.93;;;;;;;;;;5077111;28;20062;-86
2023/01/24 08:27:15;;;;;;;20.65;9.55;;;;;;;;;;5080318;28;20063;-88
2023/01/24 08:29:40;;;;;;;21.85;9.43;;;;;;;;;;5050316;28;20064;-87
2023/01/24 08:32:05;;;;;;;19.20;7.78;;;;;;;;;;5053879;28;20047;-89
2023/01/24 08:34:31;;;;;;;18.80;8.02;;;;;;;;;;5053544;28;20475;-87
2023/01/24 08:36:56;;;;;;;18.13;8.68;;;;;;;;;;5065290;28;20482;-88
2023/01/24 08:39:21;;;;;;;17.48;8.30;;;;;;;;;;5058554;28;20078;-88
2023/01/24 08:41:47;;;;;;;19.40;9.63;;;;;;;;;;5062770;28;20021;-89
2023/01/24 08:44:13;;;;;;;16.38;7.60;;;;;;;;;;5039876;28;20063;-87
2023/01/24 08:46:39;;;;;;;17.27;7.85;;;;;;;;;;5055922;28;20044;-89
2023/01/24 08:49:04;;;;;;;16.50;8.85;;;;;;;;;;5041540;28;20029;-90
2023/01/24 08:51:30;;;;;;;12.88;7.13;;;;;;;;;;5066732;28;20021;-86
2023/01/24 08:53:55;;;;;;;17.85;8.32;;;;;;;;;;5086750;28;20035;-89
2023/01/24 08:56:21;;;;;;;20.73;9.43;;;;;;;;;;5077543;28;20039;-88
2023/01/24 08:58:46;;;;;;;18.30;7.93;;;;;;;;;;5059766;28;20073;-89
2023/01/24 09:01:12;;;;;;;18.67;8.38;;;;;;;;;;5043992;28;20457;-86
2023/01/24 09:03:37;;;;;;;17.83;8.07;;;;;;;;;;5039452;28;20521;-85
2023/01/24 09:06:04;;;;;;;19.23;7.72;;;;;;;;;;5071673;28;20027;-87
2023/01/24 09:08:29;;;;;;;16.75;8.18;;;;;;;;;;5037881;28;20021;-86
2023/01/24 09:10:58;;;;;;;17.15;9.20;;;;;;;;;;5038808;28;20108;-88
2023/01/24 09:13:24;;;;;;;17.38;7.78;;;;;;;;;;5039409;28;20049;-86
2023/01/24 09:15:49;;;;;;;18.17;7.90;;;;;;;;;;5038960;28;20040;-86
2023/01/24 09:18:16;;;;;;;15.68;7.25;;;;;;;;;;5056969;28;20032;-86
2023/01/24 09:20:41;;;;;;;13.80;6.95;;;;;;;;;;5039184;28;20021;-87
2023/01/24 09:23:09;;;;;;;16.83;7.95;;;;;;;;;;5056258;28;20111;-86
2023/01/24 09:25:34;;;;;;;16.15;8.75;;;;;;;;;;5039469;28;20036;-88
2023/01/24 09:27:59;;;;;;;10.82;6.72;;;;;;;;;;5057761;28;20143;-88
2023/01/24 09:30:25;;;;;;;11.13;6.47;;;;;;;;;;5056464;28;20371;-87
2023/01/24 09:32:50;;;;;;;16.67;6.97;;;;;;;;;;5055940;28;20033;-87
2023/01/24 09:35:16;;;;;;;16.17;8.15;;;;;;;;;;5052605;28;20222;-85
2023/01/24 09:37:42;;;;;;;15.75;7.70;;;;;;;;;;5060040;28;20075;-87
2023/01/24 09:40:23;;;;;;;12.18;7.68;;;;;;;;;;5037333;28;20028;-87
2023/01/24 09:43:03;;;;;;;12.60;5.68;;;;;;;;;;5056490;28;20040;-87
2023/01/24 09:45:33;;;;;;;15.18;6.78;;;;;;;;;;5039208;28;20527;-86
2023/01/24 09:48:01;;;;;;;15.93;6.88;;;;;;;;;;5038334;28;20033;-86
2023/01/24 09:50:44;;;;;;;11.95;6.40;;;;;;;;;;5056204;28;20485;-87
2023/01/24 09:53:35;;;;;;;16.13;6.93;;;;;;;;;;5056953;28;20017;-86
2023/01/24 09:56:02;;;;;;;11.15;5.72;;;;;;;;;;5037853;28;20506;-86
2023/01/24 09:58:43;;;;;;;14.55;7.07;;;;;;;;;;5038988;28;20028;-87
2023/01/24 10:01:13;;;;;;;10.98;5.65;;;;;;;;;;5057473;28;20172;-87
2023/01/24 10:03:40;;;;;;;11.90;6.65;;;;;;;;;;5060298;28;20108;-89
2023/01/24 10:06:15;;;;;;;10.88;6.60;;;;;;;;;;5080311;28;20109;-87
2023/01/24 10:09:02;;;;;;;16.13;5.57;;;;;;;;;;5048982;28;20033;-87
2023/01/24 10:11:52;;;;;;;11.80;5.60;;;;;;;;;;5063617;28;20614;-88
2023/01/24 10:14:35;;;;;;;10.80;6.10;;;;;;;;;;5064210;28;20112;-87
2023/01/24 10:17:38;;;;;;;10.13;6.32;;;;;;;;;;5038864;28;20020;-88
2023/01/24 10:20:22;;;;;;;15.35;4.90;;;;;;;;;;5052412;28;20017;-89
2023/01/24 10:23:02;;;;;;;16.77;7.13;;;;;;;;;;5056626;28;20131;-91
2023/01/24 10:25:51;;;;;;;13.10;6.45;;;;;;;;;;5037262;28;20027;-89
2023/01/24 10:28:40;;;;;;;9.80;5.75;;;;;;;;;;5039610;28;20637;-90
2023/01/24 10:31:09;;;;;;;12.85;6.47;;;;;;;;;;5038598;28;20067;-88
2023/01/24 10:33:43;;;;;;;12.88;6.55;;;;;;;;;;5039516;28;20033;-90
2023/01/24 10:36:18;;;;;;;13.35;5.80;;;;;;;;;;5039617;28;20036;-89
2023/01/24 10:38:44;;;;;;;10.68;5.88;;;;;;;;;;5045634;28;20401;-90
2023/01/24 10:41:30;;;;;;;16.65;7.10;;;;;;;;;;5050016;28;20025;-87
2023/01/24 10:44:07;;;;;;;12.63;7.18;;;;;;;;;;5029006;28;20044;-87
2023/01/24 10:46:57;;;;;;;12.80;7.13;;;;;;;;;;5025958;28;20013;-88
2023/01/24 10:49:47;;;;;;;10.85;6.28;;;;;;;;;;5053404;28;20410;-87
2023/01/24 10:52:17;;;;;;;10.55;5.05;;;;;;;;;;5039144;28;20024;-87
2023/01/24 10:54:45;;;;;;;12.25;6.30;;;;;;;;;;5058204;28;20025;-88
2023/01/24 10:57:30;;;;;;;11.23;5.75;;;;;;;;;;5042547;28;20025;-90
2023/01/24 11:00:22;;;;;;;12.10;6.00;;;;;;;;;;5055977;28;20057;-89
2023/01/24 11:02:50;;;;;;;12.15;6.07;;;;;;;;;;5031453;28;20051;-87
2023/01/24 11:05:16;;;;;;;9.55;5.53;;;;;;;;;;5059260;28;20025;-88
2023/01/24 11:08:06;;;;;;;13.73;6.00;;;;;;;;;;5047824;28;20021;-89
2023/01/24 11:10:37;;;;;;;11.90;5.68;;;;;;;;;;5067878;28;20062;-88
2023/01/24 11:13:30;;;;;;;16.90;6.82;;;;;;;;;;5056288;28;20016;-88
2023/01/24 11:16:22;;;;;;;16.20;6.38;;;;;;;;;;5056762;28;20055;-88
2023/01/24 11:19:15;;;;;;;11.02;5.65;;;;;;;;;;5040886;28;20049;-91
2023/01/24 11:21:52;;;;;;;18.00;5.88;;;;;;;;;;5061163;28;20033;-87
2023/01/24 11:24:19;;;;;;;11.57;6.10;;;;;;;;;;5055292;28;20123;-87
2023/01/24 11:27:09;;;;;;;12.25;5.75;;;;;;;;;;5051040;28;20026;-86
2023/01/24 11:29:34;;;;;;;12.48;6.50;;;;;;;;;;5048214;28;20017;-86
2023/01/24 11:32:00;;;;;;;11.13;5.85;;;;;;;;;;5030101;28;20080;-88
2023/01/24 11:34:34;;;;;;;12.45;7.15;;;;;;;;;;5037896;28;20037;-87
2023/01/24 11:37:14;;;;;;;12.27;5.82;;;;;;;;;;5050358;28;20487;-88
2023/01/24 11:39:49;;;;;;;9.88;5.53;;;;;;;;;;5028756;28;20032;-89
2023/01/24 11:42:53;;;;;;;9.48;5.75;;;;;;;;;;5031702;28;20031;-89
2023/01/24 11:45:46;;;;;;;16.95;6.47;;;;;;;;;;5041740;28;20021;-88
2023/01/24 11:48:19;;;;;;;11.15;4.97;;;;;;;;;;5029994;28;20076;-89
2023/01/24 11:51:21;;;;;;;13.13;6.60;;;;;;;;;;5049762;28;20096;-88
2023/01/24 11:53:58;;;;;;;6.85;4.25;;;;;;;;;;5032944;28;20024;-89
2023/01/24 11:57:02;;;;;;;9.95;4.28;;;;;;;;;;5047463;28;20123;-89
2023/01/24 11:59:54;;;;;;;10.00;5.47;;;;;;;;;;5051782;28;20060;-87
2023/01/24 12:02:29;;;;;;;8.77;5.20;;;;;;;;;;5043215;28;20050;-88
2023/01/24 12:05:28;;;;;;;10.70;6.55;;;;;;;;;;5027025;28;20027;-88
2023/01/24 12:08:39;;;;;;;15.02;4.78;;;;;;;;;;5029007;28;20448;-89
2023/01/24 12:11:40;;;;;;;9.43;5.55;;;;;;;;;;5025110;28;20028;-88
2023/01/24 12:14:42;;;;;;;10.77;5.10;;;;;;;;;;5010447;28;20036;-88
2023/01/24 12:17:25;;;;;;;13.68;6.00;;;;;;;;;;5050861;28;20024;-88
2023/01/24 12:20:14;;;;;;;9.63;5.78;;;;;;;;;;5038406;28;20700;-88
2023/01/24 12:22:41;;;;;;;16.42;5.82;;;;;;;;;;5008495;28;20128;-88
2023/01/24 12:25:32;;;;;;;8.02;5.00;;;;;;;;;;5039735;28;20020;-88
2023/01/24 12:28:02;;;;;;;8.55;5.28;;;;;;;;;;5066983;28;20095;-87
2023/01/24 12:30:30;;;;;;;8.70;5.43;;;;;;;;;;5060750;28;20727;-88
2023/01/24 12:33:13;;;;;;;13.82;5.68;;;;;;;;;;5056480;28;20025;-87
2023/01/24 12:35:42;;;;;;;8.73;4.05;;;;;;;;;;5061957;28;20036;-88
2023/01/24 12:38:30;;;;;;;7.95;4.95;;;;;;;;;;5043792;28;20074;-87
2023/01/24 12:41:19;;;;;;;7.22;4.43;;;;;;;;;;5043314;28;20033;-88
2023/01/24 12:44:22;;;;;;;7.45;4.40;;;;;;;;;;5059842;28;20025;-88
2023/01/24 12:47:01;;;;;;;;;;;;;;;;;;5043147;28;20112;-88
2023/01/24 12:49:33;;;;;;;8.70;4.63;;;;;;;;;;5050080;28;19940;-87
2023/01/24 12:51:59;;;;;;;;;;;;;;;;;;5041222;28;20031;-88
2023/01/24 12:54:37;;;;;;;8.57;4.60;;;;;;;;;;5039521;28;19980;-88
2023/01/24 12:57:13;;;;;;;9.98;5.40;;;;;;;;;;5036878;28;20017;-89
2023/01/24 12:59:39;;;;;;;12.90;6.03;;;;;;;;;;5055247;28;20029;-86
2023/01/24 13:02:23;;;;;;;9.40;4.20;;;;;;;;;;5067142;28;20017;-88
2023/01/24 13:05:34;;;;;;;7.28;4.43;;;;;;;;;;5077067;28;20031;-88
2023/01/24 13:08:23;;;;;;;9.65;4.57;;;;;;;;;;5059852;28;20195;-88
2023/01/24 13:11:00;;;;;;;10.75;5.13;;;;;;;;;;5065475;28;20120;-87
2023/01/24 13:13:32;;;;;;;9.63;4.60;;;;;;;;;;5065008;28;20033;-90
2023/01/24 13:16:34;;;;;;;11.45;5.50;;;;;;;;;;5043505;28;20104;-90
2023/01/24 13:19:11;;;;;;;;;;;;;;;;;;5048664;28;20033;-87
2023/01/24 13:21:54;;;;;;;7.78;4.60;;;;;;;;;;5048844;28;19963;-88
2023/01/24 13:24:36;;;;;;;6.22;4.45;;;;;;;;;;5050337;28;20040;-88
2023/01/24 13:27:20;;;;;;;6.78;5.35;;;;;;;;;;5049261;28;20025;-86
2023/01/24 13:29:55;;;;;;;9.20;4.75;;;;;;;;;;5057713;28;20112;-86
2023/01/24 13:32:22;;;;;;;6.93;3.50;;;;;;;;;;5059460;28;20009;-86
2023/01/24 13:34:53;;;;;;;7.95;4.75;;;;;;;;;;5061562;28;20072;-85
2023/01/24 13:37:23;;;;;;;10.85;5.55;;;;;;;;;;5060821;28;20027;-87
2023/01/24 13:40:18;;;;;;;6.97;5.13;;;;;;;;;;5052572;28;20020;-88
2023/01/24 13:42:44;;;;;;;8.10;4.32;;;;;;;;;;5052307;28;20036;-87
2023/01/24 13:45:30;;;;;;;8.20;4.90;;;;;;;;;;5031912;28;20025;-85
2023/01/24 13:48:00;;;;;;;6.78;4.53;;;;;;;;;;5048580;28;20025;-87
2023/01/24 13:50:27;;;;;;;11.82;5.60;;;;;;;;;;5045414;28;20098;-88
2023/01/24 13:52:55;;;;;;;9.77;4.97;;;;;;;;;;5046592;28;20566;-86
2023/01/24 13:55:23;;;;;;;9.77;5.88;;;;;;;;;;5037092;28;20125;-87
2023/01/24 13:58:11;;;;;;;10.63;5.20;;;;;;;;;;5051166;28;20025;-87
2023/01/24 14:00:49;;;;;;;6.72;4.65;;;;;;;;;;5037442;28;20045;-87
2023/01/24 14:03:27;;;;;;;10.10;4.53;;;;;;;;;;5035758;28;20017;-87
2023/01/24 14:05:54;;;;;;;10.50;4.90;;;;;;;;;;5049317;28;20016;-89
2023/01/24 14:08:19;;;;;;;12.88;5.38;;;;;;;;;;5049893;28;20080;-88
2023/01/24 14:10:53;;;;;;;10.35;5.50;;;;;;;;;;5030042;28;20100;-87
2023/01/24 14:13:43;;;;;;;6.80;4.68;;;;;;;;;;5038841;28;20031;-88
2023/01/24 14:16:13;;;;;;;8.07;4.43;;;;;;;;;;5047498;28;20082;-88
2023/01/24 14:18:45;;;;;;;6.80;4.60;;;;;;;;;;5029027;28;20024;-88
2023/01/24 14:21:17;;;;;;;8.13;5.03;;;;;;;;;;5053116;28;20020;-87
2023/01/24 14:23:46;;;;;;;6.55;4.53;;;;;;;;;;5064237;28;20032;-87
2023/01/24 14:26:15;;;;;;;6.45;4.53;;;;;;;;;;5066284;28;20723;-88
2023/01/24 14:28:45;;;;;;;7.70;4.45;;;;;;;;;;5059764;28;20039;-87
2023/01/24 14:31:23;;;;;;;5.72;3.90;;;;;;;;;;5045083;28;20029;-88
2023/01/24 14:34:05;;;;;;;4.45;3.35;;;;;;;;;;5043564;28;20482;-88
2023/01/24 14:36:34;;;;;;;20.08;5.30;;;;;;;;;;5062743;28;20029;-86
2023/01/24 14:39:22;;;;;;;9.65;5.40;;;;;;;;;;5055308;28;20025;-86
2023/01/24 14:42:03;;;;;;;7.80;5.35;;;;;;;;;;5049383;28;20025;-86
2023/01/24 14:44:54;;;;;;;8.65;5.60;;;;;;;;;;5032066;28;20021;-86
2023/01/24 14:47:22;;;;;;;10.55;4.97;;;;;;;;;;5048438;28;20040;-86
2023/01/24 14:49:50;;;;;;;11.77;5.85;;;;;;;;;;5027983;28;20116;-86
2023/01/24 14:52:20;;;;;;;11.90;4.60;;;;;;;;;;5053345;28;20105;-85
2023/01/24 14:54:50;;;;;;;14.57;6.10;;;;;;;;;;5053643;28;20024;-87
2023/01/24 14:57:20;;;;;;;23.48;6.18;;;;;;;;;;5050738;28;20048;-87
2023/01/24 14:59:49;;;;;;;13.80;6.47;;;;;;;;;;5032878;28;20020;-87
2023/01/24 15:02:16;;;;;;;10.40;6.10;;;;;;;;;;5049962;28;20023;-87
2023/01/24 15:04:44;;;;;;;10.10;5.75;;;;;;;;;;5035846;28;20116;-87
2023/01/24 15:07:15;;;;;;;13.93;5.97;;;;;;;;;;5048552;28;20506;-87
2023/01/24 15:09:41;;;;;;;12.25;6.40;;;;;;;;;;5035555;28;20025;-88
2023/01/24 15:12:25;;;;;;;10.75;5.43;;;;;;;;;;5054271;28;20033;-89
2023/01/24 15:14:53;;;;;;;14.30;6.70;;;;;;;;;;5069186;28;20025;-88
2023/01/24 15:17:25;;;;;;;12.02;6.03;;;;;;;;;;5063725;28;20049;-87
2023/01/24 15:19:56;;;;;;;20.02;6.22;;;;;;;;;;5065040;28;20021;-89
2023/01/24 15:22:23;;;;;;;10.27;5.43;;;;;;;;;;5038994;28;20028;-88
2023/01/24 15:24:54;;;;;;;10.27;5.30;;;;;;;;;;5055717;28;20088;-88
2023/01/24 15:27:31;;;;;;;14.60;6.32;;;;;;;;;;5056177;28;20043;-88
2023/01/24 15:30:21;;;;;;;19.77;6.50;;;;;;;;;;5056090;28;20033;-89
2023/01/24 15:32:57;;;;;;;13.80;5.95;;;;;;;;;;5055262;28;20032;-90